sensor_id;sensor_type;location;lat;lon;timestamp;pressure;altitude;pressure_sealevel;temperature;humidity
39793;BME280;26080;42.264;24.536;2023-03-26T00:01:00;98561.88;;;9.20;100.00
39793;BME280;26080;42.264;24.536;2023-03-26T00:03:30;98567.22;;;9.17;100.00
39793;BME280;26080;42.264;24.536;2023-03-26T00:06:06;98577.25;;;9.09;100.00
39793;BME280;26080;42.264;24.536;2023-03-26T00:08:36;98570.00;;;9.14;100.00
39793;BME280;26080;42.264;24.536;2023-03-26T00:11:03;98575.03;;;9.19;100.00
39793;BME280;26080;42.264;24.536;2023-03-26T00:13:29;98581.81;;;9.06;100.00
39793;BME280;26080;42.264;24.536;2023-03-26T00:15:56;98591.81;;;8.98;100.00
39793;BME280;26080;42.264;24.536;2023-03-26T00:18:21;98584.97;;;8.95;100.00
39793;BME280;26080;42.264;24.536;2023-03-26T00:20:50;98575.38;;;8.96;100.00
39793;BME280;26080;42.264;24.536;2023-03-26T00:23:16;98578.50;;;9.02;100.00
39793;BME280;26080;42.264;24.536;2023-03-26T00:25:41;98582.31;;;9.12;100.00
39793;BME280;26080;42.264;24.536;2023-03-26T00:28:08;98565.25;;;9.23;100.00
39793;BME280;26080;42.264;24.536;2023-03-26T00:30:34;98574.69;;;9.41;100.00
39793;BME280;26080;42.264;24.536;2023-03-26T00:33:00;98598.09;;;9.60;100.00
39793;BME280;26080;42.264;24.536;2023-03-26T00:35:26;98594.00;;;9.54;100.00
39793;BME280;26080;42.264;24.536;2023-03-26T00:37:53;98580.78;;;9.57;100.00
39793;BME280;26080;42.264;24.536;2023-03-26T00:40:19;98594.53;;;9.61;100.00
39793;BME280;26080;42.264;24.536;2023-03-26T00:42:44;98592.50;;;9.66;100.00
39793;BME280;26080;42.264;24.536;2023-03-26T00:45:10;98591.31;;;9.71;100.00
39793;BME280;26080;42.264;24.536;2023-03-26T00:47:36;98599.84;;;9.75;100.00
39793;BME280;26080;42.264;24.536;2023-03-26T00:50:03;98609.03;;;9.82;100.00
39793;BME280;26080;42.264;24.536;2023-03-26T00:52:28;98618.66;;;9.82;100.00
39793;BME280;26080;42.264;24.536;2023-03-26T00:54:54;98618.66;;;9.82;100.00
39793;BME280;26080;42.264;24.536;2023-03-26T00:57:20;98631.72;;;9.82;100.00
39793;BME280;26080;42.264;24.536;2023-03-26T00:59:47;98633.41;;;9.83;100.00
39793;BME280;26080;42.264;24.536;2023-03-26T01:02:16;98633.09;;;9.89;100.00
39793;BME280;26080;42.264;24.536;2023-03-26T01:04:49;98634.03;;;9.88;100.00
39793;BME280;26080;42.264;24.536;2023-03-26T01:07:20;98630.22;;;9.77;100.00
39793;BME280;26080;42.264;24.536;2023-03-26T01:09:55;98620.44;;;9.65;100.00
39793;BME280;26080;42.264;24.536;2023-03-26T01:12:23;98621.63;;;9.60;100.00
39793;BME280;26080;42.264;24.536;2023-03-26T01:14:51;98619.84;;;9.60;100.00
39793;BME280;26080;42.264;24.536;2023-03-26T01:17:17;98621.84;;;9.55;100.00
39793;BME280;26080;42.264;24.536;2023-03-26T01:22:33;98609.34;;;9.44;100.00
39793;BME280;26080;42.264;24.536;2023-03-26T01:25:01;98605.81;;;9.45;100.00
39793;BME280;26080;42.264;24.536;2023-03-26T01:27:29;98613.72;;;9.44;100.00
39793;BME280;26080;42.264;24.536;2023-03-26T01:30:47;98623.69;;;9.53;100.00
39793;BME280;26080;42.264;24.536;2023-03-26T01:36:07;98619.13;;;9.57;100.00
39793;BME280;26080;42.264;24.536;2023-03-26T01:42:09;98624.16;;;9.61;100.00
39793;BME280;26080;42.264;24.536;2023-03-26T01:45:01;98613.78;;;9.60;100.00
39793;BME280;26080;42.264;24.536;2023-03-26T01:47:29;98602.31;;;9.62;100.00
39793;BME280;26080;42.264;24.536;2023-03-26T01:49:55;98611.38;;;9.71;100.00
39793;BME280;26080;42.264;24.536;2023-03-26T01:52:22;98620.16;;;9.86;100.00
39793;BME280;26080;42.264;24.536;2023-03-26T01:54:50;98616.22;;;9.94;100.00
39793;BME280;26080;42.264;24.536;2023-03-26T01:57:41;98622.72;;;10.03;100.00
39793;BME280;26080;42.264;24.536;2023-03-26T02:00:29;98620.84;;;10.05;100.00
39793;BME280;26080;42.264;24.536;2023-03-26T02:05:41;98623.19;;;10.09;100.00
39793;BME280;26080;42.264;24.536;2023-03-26T02:10:43;98637.47;;;10.04;100.00
39793;BME280;26080;42.264;24.536;2023-03-26T02:13:10;98631.91;;;9.94;100.00
39793;BME280;26080;42.264;24.536;2023-03-26T02:15:37;98643.97;;;9.97;100.00
39793;BME280;26080;42.264;24.536;2023-03-26T02:18:03;98644.56;;;10.02;100.00
39793;BME280;26080;42.264;24.536;2023-03-26T02:20:28;98637.31;;;10.07;100.00
39793;BME280;26080;42.264;24.536;2023-03-26T02:22:55;98624.31;;;9.90;100.00
39793;BME280;26080;42.264;24.536;2023-03-26T02:25:21;98644.78;;;10.13;100.00
39793;BME280;26080;42.264;24.536;2023-03-26T02:27:48;98651.88;;;10.11;100.00
39793;BME280;26080;42.264;24.536;2023-03-26T02:30:24;98661.19;;;10.17;100.00
39793;BME280;26080;42.264;24.536;2023-03-26T02:32:51;98634.69;;;10.07;100.00
39793;BME280;26080;42.264;24.536;2023-03-26T02:35:18;98659.34;;;10.34;100.00
39793;BME280;26080;42.264;24.536;2023-03-26T02:37:44;98677.34;;;10.55;100.00
39793;BME280;26080;42.264;24.536;2023-03-26T02:40:11;98659.44;;;10.63;100.00
39793;BME280;26080;42.264;24.536;2023-03-26T02:42:37;98676.66;;;10.67;100.00
39793;BME280;26080;42.264;24.536;2023-03-26T02:45:04;98680.41;;;10.63;100.00
39793;BME280;26080;42.264;24.536;2023-03-26T02:47:29;98678.53;;;10.65;100.00
39793;BME280;26080;42.264;24.536;2023-03-26T02:49:55;98683.78;;;10.65;100.00
39793;BME280;26080;42.264;24.536;2023-03-26T02:52:21;98683.84;;;10.63;100.00
39793;BME280;26080;42.264;24.536;2023-03-26T02:54:46;98682.69;;;10.69;100.00
39793;BME280;26080;42.264;24.536;2023-03-26T02:57:12;98674.03;;;10.67;100.00
39793;BME280;26080;42.264;24.536;2023-03-26T02:59:37;98695.09;;;10.65;100.00
39793;BME280;26080;42.264;24.536;2023-03-26T03:02:03;98660.50;;;10.45;100.00
39793;BME280;26080;42.264;24.536;2023-03-26T03:04:28;98654.47;;;10.28;100.00
39793;BME280;26080;42.264;24.536;2023-03-26T03:06:54;98700.34;;;10.50;100.00
39793;BME280;26080;42.264;24.536;2023-03-26T03:09:24;98699.78;;;10.45;100.00
39793;BME280;26080;42.264;24.536;2023-03-26T03:11:50;98696.56;;;10.39;100.00
39793;BME280;26080;42.264;24.536;2023-03-26T03:14:18;98701.03;;;10.37;100.00
39793;BME280;26080;42.264;24.536;2023-03-26T03:16:44;98695.97;;;10.34;100.00
39793;BME280;26080;42.264;24.536;2023-03-26T03:19:11;98664.22;;;9.93;100.00
39793;BME280;26080;42.264;24.536;2023-03-26T03:21:37;98689.72;;;9.90;100.00
39793;BME280;26080;42.264;24.536;2023-03-26T03:24:03;98699.31;;;9.89;100.00
39793;BME280;26080;42.264;24.536;2023-03-26T03:26:28;98704.47;;;9.91;100.00
39793;BME280;26080;42.264;24.536;2023-03-26T03:28:56;98705.41;;;9.90;100.00
39793;BME280;26080;42.264;24.536;2023-03-26T03:31:22;98697.78;;;9.85;100.00
39793;BME280;26080;42.264;24.536;2023-03-26T03:33:49;98707.75;;;9.78;100.00
39793;BME280;26080;42.264;24.536;2023-03-26T03:36:17;98714.13;;;9.73;100.00
39793;BME280;26080;42.264;24.536;2023-03-26T03:38:43;98703.56;;;9.59;100.00
39793;BME280;26080;42.264;24.536;2023-03-26T03:41:09;98708.59;;;9.46;100.00
39793;BME280;26080;42.264;24.536;2023-03-26T03:43:34;98729.06;;;9.38;100.00
39793;BME280;26080;42.264;24.536;2023-03-26T03:46:00;98737.19;;;9.32;100.00
39793;BME280;26080;42.264;24.536;2023-03-26T03:48:26;98718.47;;;9.06;100.00
39793;BME280;26080;42.264;24.536;2023-03-26T03:50:52;98746.28;;;9.07;100.00
39793;BME280;26080;42.264;24.536;2023-03-26T03:53:19;98746.13;;;8.93;100.00
39793;BME280;26080;42.264;24.536;2023-03-26T03:55:44;98745.81;;;8.82;100.00
39793;BME280;26080;42.264;24.536;2023-03-26T03:58:18;98693.06;;;8.39;100.00
39793;BME280;26080;42.264;24.536;2023-03-26T04:00:47;98722.31;;;8.46;100.00
39793;BME280;26080;42.264;24.536;2023-03-26T04:03:13;98709.66;;;8.38;100.00
39793;BME280;26080;42.264;24.536;2023-03-26T04:05:39;98743.72;;;8.71;100.00
39793;BME280;26080;42.264;24.536;2023-03-26T04:08:05;98745.81;;;8.82;100.00
39793;BME280;26080;42.264;24.536;2023-03-26T04:10:33;98752.56;;;8.86;100.00
39793;BME280;26080;42.264;24.536;2023-03-26T04:13:02;98767.63;;;8.98;100.00
39793;BME280;26080;42.264;24.536;2023-03-26T04:15:28;98747.81;;;9.29;100.00
39793;BME280;26080;42.264;24.536;2023-03-26T04:17:53;98750.13;;;9.68;100.00
39793;BME280;26080;42.264;24.536;2023-03-26T04:20:19;98738.97;;;9.82;100.00
39793;BME280;26080;42.264;24.536;2023-03-26T04:22:45;98758.47;;;9.92;100.00
39793;BME280;26080;42.264;24.536;2023-03-26T04:25:11;98753.66;;;10.00;100.00
39793;BME280;26080;42.264;24.536;2023-03-26T04:27:38;98773.16;;;10.43;100.00
39793;BME280;26080;42.264;24.536;2023-03-26T04:30:07;98765.38;;;10.73;100.00
39793;BME280;26080;42.264;24.536;2023-03-26T04:32:35;98760.81;;;10.61;100.00
39793;BME280;26080;42.264;24.536;2023-03-26T04:35:02;98776.09;;;10.53;100.00
39793;BME280;26080;42.264;24.536;2023-03-26T04:37:37;98765.38;;;10.26;100.00
39793;BME280;26080;42.264;24.536;2023-03-26T04:40:10;98749.69;;;9.93;100.00
39793;BME280;26080;42.264;24.536;2023-03-26T04:42:37;98783.94;;;10.21;100.00
39793;BME280;26080;42.264;24.536;2023-03-26T04:45:08;98776.53;;;10.29;100.00
39793;BME280;26080;42.264;24.536;2023-03-26T04:47:35;98804.22;;;10.33;100.00
39793;BME280;26080;42.264;24.536;2023-03-26T04:50:03;98792.56;;;10.39;100.00
39793;BME280;26080;42.264;24.536;2023-03-26T04:52:29;98778.63;;;10.38;100.00
39793;BME280;26080;42.264;24.536;2023-03-26T04:54:54;98794.78;;;10.47;100.00
39793;BME280;26080;42.264;24.536;2023-03-26T04:59:50;98779.81;;;10.33;100.00
39793;BME280;26080;42.264;24.536;2023-03-26T05:02:16;98805.06;;;10.50;100.00
39793;BME280;26080;42.264;24.536;2023-03-26T05:04:42;98812.44;;;10.59;100.00
39793;BME280;26080;42.264;24.536;2023-03-26T05:07:10;98810.56;;;10.61;100.00
39793;BME280;26080;42.264;24.536;2023-03-26T05:09:38;98796.81;;;10.57;100.00
39793;BME280;26080;42.264;24.536;2023-03-26T05:12:04;98829.06;;;10.74;100.00
39793;BME280;26080;42.264;24.536;2023-03-26T05:14:29;98832.09;;;10.82;100.00
39793;BME280;26080;42.264;24.536;2023-03-26T05:16:55;98830.31;;;10.82;100.00
39793;BME280;26080;42.264;24.536;2023-03-26T05:19:21;98834.56;;;10.85;100.00
39793;BME280;26080;42.264;24.536;2023-03-26T05:21:46;98817.09;;;10.70;100.00
39793;BME280;26080;42.264;24.536;2023-03-26T05:24:12;98846.72;;;10.86;100.00
39793;BME280;26080;42.264;24.536;2023-03-26T05:26:37;98850.09;;;10.88;100.00
39793;BME280;26080;42.264;24.536;2023-03-26T05:29:03;98858.47;;;10.94;100.00
39793;BME280;26080;42.264;24.536;2023-03-26T05:31:29;98832.94;;;10.82;100.00
39793;BME280;26080;42.264;24.536;2023-03-26T05:33:56;98870.31;;;11.02;100.00
39793;BME280;26080;42.264;24.536;2023-03-26T05:36:22;98868.25;;;11.07;100.00
39793;BME280;26080;42.264;24.536;2023-03-26T05:38:48;98862.84;;;11.10;100.00
39793;BME280;26080;42.264;24.536;2023-03-26T05:41:15;98875.63;;;11.16;100.00
39793;BME280;26080;42.264;24.536;2023-03-26T05:43:41;98877.97;;;11.20;100.00
39793;BME280;26080;42.264;24.536;2023-03-26T05:46:09;98873.41;;;11.24;100.00
39793;BME280;26080;42.264;24.536;2023-03-26T05:48:35;98878.13;;;11.33;100.00
39793;BME280;26080;42.264;24.536;2023-03-26T05:51:02;98876.84;;;11.40;100.00
39793;BME280;26080;42.264;24.536;2023-03-26T05:53:28;98880.03;;;11.45;100.00
39793;BME280;26080;42.264;24.536;2023-03-26T05:55:54;98848.09;;;11.39;100.00
39793;BME280;26080;42.264;24.536;2023-03-26T05:58:27;98877.13;;;11.66;100.00
39793;BME280;26080;42.264;24.536;2023-03-26T06:01:03;98885.09;;;11.78;100.00
39793;BME280;26080;42.264;24.536;2023-03-26T06:03:35;98867.72;;;11.92;100.00
39793;BME280;26080;42.264;24.536;2023-03-26T06:06:01;98879.47;;;12.00;100.00
39793;BME280;26080;42.264;24.536;2023-03-26T06:08:28;98864.72;;;11.83;100.00
39793;BME280;26080;42.264;24.536;2023-03-26T06:11:01;98891.63;;;11.87;100.00
39793;BME280;26080;42.264;24.536;2023-03-26T06:13:26;98891.84;;;11.68;100.00
39793;BME280;26080;42.264;24.536;2023-03-26T06:15:52;98903.69;;;11.60;100.00
39793;BME280;26080;42.264;24.536;2023-03-26T06:18:18;98896.09;;;11.55;100.00
39793;BME280;26080;42.264;24.536;2023-03-26T06:20:45;98847.81;;;11.43;100.00
39793;BME280;26080;42.264;24.536;2023-03-26T06:23:11;98901.19;;;11.88;100.00
39793;BME280;26080;42.264;24.536;2023-03-26T06:25:36;98914.06;;;12.07;100.00
39793;BME280;26080;42.264;24.536;2023-03-26T06:28:03;98917.56;;;12.22;100.00
39793;BME280;26080;42.264;24.536;2023-03-26T06:30:28;98904.91;;;12.28;100.00
39793;BME280;26080;42.264;24.536;2023-03-26T06:32:54;98933.25;;;12.37;100.00
39793;BME280;26080;42.264;24.536;2023-03-26T06:35:19;98931.16;;;12.42;100.00
39793;BME280;26080;42.264;24.536;2023-03-26T06:37:45;98943.16;;;12.46;100.00
39793;BME280;26080;42.264;24.536;2023-03-26T06:40:10;98898.25;;;12.23;100.00
39793;BME280;26080;42.264;24.536;2023-03-26T06:42:39;98920.66;;;12.42;100.00
39793;BME280;26080;42.264;24.536;2023-03-26T06:45:05;98955.09;;;12.66;100.00
39793;BME280;26080;42.264;24.536;2023-03-26T06:47:37;98926.75;;;12.57;100.00
39793;BME280;26080;42.264;24.536;2023-03-26T06:50:03;98944.31;;;12.71;100.00
39793;BME280;26080;42.264;24.536;2023-03-26T06:52:29;98931.81;;;12.74;100.00
39793;BME280;26080;42.264;24.536;2023-03-26T06:54:54;98924.50;;;12.80;100.00
39793;BME280;26080;42.264;24.536;2023-03-26T06:57:20;98926.06;;;12.96;100.00
39793;BME280;26080;42.264;24.536;2023-03-26T06:59:46;98926.91;;;12.97;97.35
39793;BME280;26080;42.264;24.536;2023-03-26T07:02:11;98918.72;;;13.01;96.10
39793;BME280;26080;42.264;24.536;2023-03-26T07:04:37;98925.94;;;13.12;97.93
39793;BME280;26080;42.264;24.536;2023-03-26T07:07:03;98905.00;;;13.11;93.32
39793;BME280;26080;42.264;24.536;2023-03-26T07:09:28;98909.00;;;13.03;92.96
39793;BME280;26080;42.264;24.536;2023-03-26T07:11:57;98922.25;;;13.29;91.15
39793;BME280;26080;42.264;24.536;2023-03-26T07:14:23;98925.31;;;13.50;89.99
39793;BME280;26080;42.264;24.536;2023-03-26T07:16:49;98920.41;;;13.58;91.30
39793;BME280;26080;42.264;24.536;2023-03-26T07:19:15;98916.41;;;13.65;85.96
39793;BME280;26080;42.264;24.536;2023-03-26T07:21:41;98915.28;;;13.82;80.41
39793;BME280;26080;42.264;24.536;2023-03-26T07:24:12;98911.06;;;13.79;81.24
39793;BME280;26080;42.264;24.536;2023-03-26T07:29:17;98902.03;;;13.96;86.25
39793;BME280;26080;42.264;24.536;2023-03-26T07:32:06;98903.13;;;14.06;85.79
39793;BME280;26080;42.264;24.536;2023-03-26T07:40:19;98898.69;;;14.07;82.71
39793;BME280;26080;42.264;24.536;2023-03-26T07:43:00;98905.44;;;14.11;82.85
39793;BME280;26080;42.264;24.536;2023-03-26T07:47:59;98888.38;;;14.29;77.64
39793;BME280;26080;42.264;24.536;2023-03-26T07:50:30;98898.25;;;14.38;76.73
39793;BME280;26080;42.264;24.536;2023-03-26T07:52:56;98875.97;;;14.44;73.64
39793;BME280;26080;42.264;24.536;2023-03-26T07:55:22;98866.66;;;14.38;74.01
39793;BME280;26080;42.264;24.536;2023-03-26T07:57:52;98876.47;;;14.49;73.58
39793;BME280;26080;42.264;24.536;2023-03-26T08:00:25;98881.13;;;14.45;72.43
39793;BME280;26080;42.264;24.536;2023-03-26T08:03:20;98872.16;;;14.48;77.69
39793;BME280;26080;42.264;24.536;2023-03-26T08:16:50;98834.59;;;14.70;66.41
39793;BME280;26080;42.264;24.536;2023-03-26T08:19:33;98846.28;;;14.78;66.93
39793;BME280;26080;42.264;24.536;2023-03-26T08:22:18;98843.81;;;14.88;65.72
39793;BME280;26080;42.264;24.536;2023-03-26T08:25:17;98832.56;;;14.86;64.99
39793;BME280;26080;42.264;24.536;2023-03-26T08:30:26;98802.81;;;14.84;61.51
39793;BME280;26080;42.264;24.536;2023-03-26T08:32:54;98825.81;;;15.06;64.30
39793;BME280;26080;42.264;24.536;2023-03-26T08:35:21;98831.94;;;15.06;63.73
39793;BME280;26080;42.264;24.536;2023-03-26T08:37:46;98814.94;;;15.10;64.50
39793;BME280;26080;42.264;24.536;2023-03-26T08:40:22;98824.38;;;15.26;63.80
39793;BME280;26080;42.264;24.536;2023-03-26T08:43:12;98824.19;;;15.40;63.13
39793;BME280;26080;42.264;24.536;2023-03-26T09:23:18;98801.09;;;16.12;57.69
39793;BME280;26080;42.264;24.536;2023-03-26T09:40:02;98783.31;;;16.37;56.36
39793;BME280;26080;42.264;24.536;2023-03-26T09:42:51;98779.19;;;16.44;59.25
39793;BME280;26080;42.264;24.536;2023-03-26T10:01:16;98769.31;;;16.79;52.55
39793;BME280;26080;42.264;24.536;2023-03-26T10:12:21;98756.91;;;16.91;51.06
39793;BME280;26080;42.264;24.536;2023-03-26T10:38:57;98713.25;;;17.59;49.09
39793;BME280;26080;42.264;24.536;2023-03-26T10:52:08;98688.84;;;17.76;42.18
39793;BME280;26080;42.264;24.536;2023-03-26T11:06:15;98677.59;;;17.84;43.77
39793;BME280;26080;42.264;24.536;2023-03-26T11:08:56;98668.94;;;17.82;43.51
39793;BME280;26080;42.264;24.536;2023-03-26T11:14:28;98665.66;;;17.99;42.94
39793;BME280;26080;42.264;24.536;2023-03-26T11:17:00;98661.19;;;18.00;42.10
39793;BME280;26080;42.264;24.536;2023-03-26T11:22:19;98651.94;;;18.25;41.09
39793;BME280;26080;42.264;24.536;2023-03-26T11:33:40;98613.22;;;18.03;43.73
39793;BME280;26080;42.264;24.536;2023-03-26T11:36:13;98640.31;;;18.16;44.14
39793;BME280;26080;42.264;24.536;2023-03-26T11:38:43;98635.00;;;18.16;41.33
39793;BME280;26080;42.264;24.536;2023-03-26T11:41:17;98637.81;;;18.34;43.86
39793;BME280;26080;42.264;24.536;2023-03-26T11:43:46;98632.72;;;18.52;44.97
39793;BME280;26080;42.264;24.536;2023-03-26T11:46:17;98629.78;;;18.55;44.32
39793;BME280;26080;42.264;24.536;2023-03-26T11:48:48;98629.47;;;18.48;44.16
39793;BME280;26080;42.264;24.536;2023-03-26T11:51:35;98624.16;;;18.48;42.52
39793;BME280;26080;42.264;24.536;2023-03-26T11:54:02;98615.25;;;18.40;41.13
39793;BME280;26080;42.264;24.536;2023-03-26T11:59:07;98620.25;;;18.62;42.91
39793;BME280;26080;42.264;24.536;2023-03-26T12:01:56;98621.84;;;18.64;39.80
39793;BME280;26080;42.264;24.536;2023-03-26T12:07:12;98609.53;;;18.54;40.15
39793;BME280;26080;42.264;24.536;2023-03-26T12:09:54;98606.88;;;18.44;41.61
39793;BME280;26080;42.264;24.536;2023-03-26T12:12:24;98609.41;;;18.75;39.75
39793;BME280;26080;42.264;24.536;2023-03-26T12:14:50;98605.91;;;18.84;39.37
39793;BME280;26080;42.264;24.536;2023-03-26T12:17:32;98599.06;;;18.91;37.74
39793;BME280;26080;42.264;24.536;2023-03-26T12:19:59;98584.69;;;18.93;36.06
39793;BME280;26080;42.264;24.536;2023-03-26T12:22:37;98586.38;;;18.85;37.60
39793;BME280;26080;42.264;24.536;2023-03-26T12:25:18;98587.59;;;18.90;36.03
39793;BME280;26080;42.264;24.536;2023-03-26T12:27:48;98591.28;;;18.80;36.24
39793;BME280;26080;42.264;24.536;2023-03-26T12:30:25;98581.75;;;18.77;36.91
39793;BME280;26080;42.264;24.536;2023-03-26T12:32:55;98580.53;;;18.81;35.36
39793;BME280;26080;42.264;24.536;2023-03-26T12:35:24;98573.94;;;18.76;36.29
39793;BME280;26080;42.264;24.536;2023-03-26T12:37:55;98577.31;;;18.78;37.27
39793;BME280;26080;42.264;24.536;2023-03-26T12:40:31;98569.47;;;18.76;37.29
39793;BME280;26080;42.264;24.536;2023-03-26T12:43:27;98576.88;;;18.92;36.56
39793;BME280;26080;42.264;24.536;2023-03-26T12:45:54;98556.03;;;18.97;35.73
39793;BME280;26080;42.264;24.536;2023-03-26T12:48:23;98552.41;;;18.88;35.38
39793;BME280;26080;42.264;24.536;2023-03-26T12:53:32;98551.03;;;18.94;35.70
39793;BME280;26080;42.264;24.536;2023-03-26T12:58:52;98539.72;;;18.92;34.10
39793;BME280;26080;42.264;24.536;2023-03-26T13:01:42;98540.56;;;18.92;33.13
39793;BME280;26080;42.264;24.536;2023-03-26T13:07:16;98525.56;;;19.01;34.13
39793;BME280;26080;42.264;24.536;2023-03-26T13:17:51;98522.25;;;18.99;34.99
39793;BME280;26080;42.264;24.536;2023-03-26T13:26:33;98511.59;;;19.09;34.31
39793;BME280;26080;42.264;24.536;2023-03-26T13:29:07;98518.59;;;19.10;31.92
39793;BME280;26080;42.264;24.536;2023-03-26T13:48:20;98499.69;;;19.22;30.68
39793;BME280;26080;42.264;24.536;2023-03-26T13:51:02;98499.00;;;19.20;33.53
39793;BME280;26080;42.264;24.536;2023-03-26T13:53:42;98505.66;;;19.24;29.95
39793;BME280;26080;42.264;24.536;2023-03-26T13:56:14;98512.94;;;19.22;31.33
39793;BME280;26080;42.264;24.536;2023-03-26T13:59:02;98490.03;;;19.21;29.59
39793;BME280;26080;42.264;24.536;2023-03-26T14:01:35;98503.13;;;19.33;30.99
39793;BME280;26080;42.264;24.536;2023-03-26T14:04:20;98498.66;;;19.33;29.99
39793;BME280;26080;42.264;24.536;2023-03-26T14:07:57;98511.22;;;19.31;31.26
39793;BME280;26080;42.264;24.536;2023-03-26T14:10:07;98503.25;;;19.31;31.36
39793;BME280;26080;42.264;24.536;2023-03-26T14:12:55;98502.53;;;19.39;31.34
39793;BME280;26080;42.264;24.536;2023-03-26T14:18:33;98506.16;;;19.38;31.26
39793;BME280;26080;42.264;24.536;2023-03-26T14:29:33;98501.44;;;19.32;30.19
39793;BME280;26080;42.264;24.536;2023-03-26T14:38:18;98505.81;;;19.23;30.61
39793;BME280;26080;42.264;24.536;2023-03-26T14:41:01;98491.59;;;19.14;30.58
39793;BME280;26080;42.264;24.536;2023-03-26T14:43:40;98492.00;;;19.19;31.26
39793;BME280;26080;42.264;24.536;2023-03-26T14:49:09;98492.00;;;19.19;30.29
39793;BME280;26080;42.264;24.536;2023-03-26T14:51:58;98493.13;;;19.17;30.23
39793;BME280;26080;42.264;24.536;2023-03-26T14:54:27;98483.63;;;19.14;31.71
39793;BME280;26080;42.264;24.536;2023-03-26T14:57:16;98475.59;;;19.06;30.62
39793;BME280;26080;42.264;24.536;2023-03-26T15:18:56;98489.66;;;18.70;34.55
39793;BME280;26080;42.264;24.536;2023-03-26T15:27:56;98464.53;;;18.54;34.00
39793;BME280;26080;42.264;24.536;2023-03-26T15:59:58;98479.50;;;18.07;36.45
39793;BME280;26080;42.264;24.536;2023-03-26T16:08:00;98472.41;;;17.88;37.29
39793;BME280;26080;42.264;24.536;2023-03-26T16:16:08;98480.41;;;17.58;38.51
39793;BME280;26080;42.264;24.536;2023-03-26T16:29:23;98473.69;;;16.73;41.52
39793;BME280;26080;42.264;24.536;2023-03-26T16:32:27;98478.81;;;16.54;42.09
39793;BME280;26080;42.264;24.536;2023-03-26T16:37:37;98490.97;;;16.36;42.99
39793;BME280;26080;42.264;24.536;2023-03-26T16:43:05;98489.66;;;16.09;43.46
39793;BME280;26080;42.264;24.536;2023-03-26T16:46:04;98495.94;;;15.97;44.06
39793;BME280;26080;42.264;24.536;2023-03-26T16:57:00;98508.16;;;15.44;46.43
39793;BME280;26080;42.264;24.536;2023-03-26T17:08:00;98536.47;;;15.19;46.46
39793;BME280;26080;42.264;24.536;2023-03-26T17:10:41;98533.72;;;15.09;46.42
39793;BME280;26080;42.264;24.536;2023-03-26T17:13:13;98539.34;;;15.05;46.89
39793;BME280;26080;42.264;24.536;2023-03-26T17:32:11;98579.88;;;14.10;51.81
39793;BME280;26080;42.264;24.536;2023-03-26T17:34:39;98591.25;;;13.86;54.14
39793;BME280;26080;42.264;24.536;2023-03-26T17:47:42;98607.41;;;12.93;56.77
39793;BME280;26080;42.264;24.536;2023-03-26T17:50:16;98606.88;;;12.88;56.92
39793;BME280;26080;42.264;24.536;2023-03-26T17:52:51;98593.66;;;12.89;54.89
39793;BME280;26080;42.264;24.536;2023-03-26T17:55:20;98610.66;;;12.84;58.02
39793;BME280;26080;42.264;24.536;2023-03-26T17:57:50;98613.47;;;12.68;57.68
39793;BME280;26080;42.264;24.536;2023-03-26T18:00:22;98613.06;;;12.61;59.20
39793;BME280;26080;42.264;24.536;2023-03-26T18:02:56;98616.81;;;12.57;58.90
39793;BME280;26080;42.264;24.536;2023-03-26T18:05:25;98627.94;;;12.61;59.79
39793;BME280;26080;42.264;24.536;2023-03-26T18:18:51;98659.72;;;12.43;62.68
39793;BME280;26080;42.264;24.536;2023-03-26T18:21:31;98656.09;;;12.32;63.45
39793;BME280;26080;42.264;24.536;2023-03-26T18:23:58;98617.50;;;12.07;62.57
39793;BME280;26080;42.264;24.536;2023-03-26T18:26:41;98662.97;;;12.07;63.39
39793;BME280;26080;42.264;24.536;2023-03-26T18:29:20;98663.59;;;12.11;63.84
39793;BME280;26080;42.264;24.536;2023-03-26T18:32:02;98660.16;;;11.96;64.03
39793;BME280;26080;42.264;24.536;2023-03-26T18:34:46;98638.03;;;12.00;63.66
39793;BME280;26080;42.264;24.536;2023-03-26T18:37:23;98653.72;;;12.14;62.65
39793;BME280;26080;42.264;24.536;2023-03-26T18:40:09;98649.31;;;12.15;63.00
39793;BME280;26080;42.264;24.536;2023-03-26T18:42:37;98651.16;;;12.00;63.38
39793;BME280;26080;42.264;24.536;2023-03-26T18:45:28;98646.44;;;12.05;60.98
39793;BME280;26080;42.264;24.536;2023-03-26T18:47:56;98651.88;;;12.02;63.50
39793;BME280;26080;42.264;24.536;2023-03-26T18:50:29;98647.25;;;11.93;62.35
39793;BME280;26080;42.264;24.536;2023-03-26T18:52:59;98639.91;;;11.98;62.06
39793;BME280;26080;42.264;24.536;2023-03-26T18:55:29;98640.28;;;12.06;62.31
39793;BME280;26080;42.264;24.536;2023-03-26T18:57:56;98635.66;;;12.10;61.90
39793;BME280;26080;42.264;24.536;2023-03-26T19:00:23;98636.41;;;12.12;61.50
39793;BME280;26080;42.264;24.536;2023-03-26T19:03:00;98635.41;;;12.00;63.59
39793;BME280;26080;42.264;24.536;2023-03-26T19:05:27;98636.44;;;11.98;63.38
39793;BME280;26080;42.264;24.536;2023-03-26T19:07:55;98635.91;;;11.93;61.75
39793;BME280;26080;42.264;24.536;2023-03-26T19:10:21;98631.66;;;11.90;61.99
39793;BME280;26080;42.264;24.536;2023-03-26T19:12:56;98634.50;;;11.87;62.08
39793;BME280;26080;42.264;24.536;2023-03-26T19:15:22;98637.19;;;11.71;65.06
39793;BME280;26080;42.264;24.536;2023-03-26T19:17:54;98640.97;;;11.67;67.26
39793;BME280;26080;42.264;24.536;2023-03-26T19:20:29;98635.88;;;11.64;68.40
39793;BME280;26080;42.264;24.536;2023-03-26T19:22:56;98615.00;;;11.06;68.23
39793;BME280;26080;42.264;24.536;2023-03-26T19:25:33;98643.34;;;10.85;67.04
39793;BME280;26080;42.264;24.536;2023-03-26T19:28:01;98643.00;;;10.61;68.51